Time;durP1;ratioP1;P1;durP2;ratioP2;P2;SDS_P1;SDS_P2;PMS_P1;PMS_P2;Temp;Humidity;BMP_temperature;BMP_pressure;BME280_temperature;BME280_humidity;BME280_pressure;Samples;Min_cycle;Max_cycle;Signal;HPM_P1;HPM_P2
2022/03/14 00:01:04;;;;;;;2.90;2.70;;;11.20;99.90;;;;;;5013454;28;20181;-56
2022/03/14 00:03:32;;;;;;;3.15;2.90;;;11.10;99.90;;;;;;5012951;28;20196;-57
2022/03/14 00:05:58;;;;;;;3.33;3.03;;;11.00;99.90;;;;;;5013525;28;20227;-55
2022/03/14 00:08:31;;;;;;;3.67;2.83;;;11.10;99.90;;;;;;5013458;28;20185;-56
2022/03/14 00:10:56;;;;;;;3.13;2.83;;;11.00;99.90;;;;;;5013638;28;20562;-56
2022/03/14 00:13:22;;;;;;;2.60;2.40;;;11.00;99.90;;;;;;5013379;28;20207;-56
2022/03/14 00:15:48;;;;;;;2.95;2.65;;;11.10;99.90;;;;;;4995812;28;20188;-56
2022/03/14 00:18:15;;;;;;;3.03;2.83;;;10.90;99.90;;;;;;5013363;28;20184;-56
2022/03/14 00:20:42;;;;;;;2.80;2.60;;;11.00;99.90;;;;;;5012140;28;20181;-57
2022/03/14 00:23:08;;;;;;;3.35;3.00;;;11.00;99.90;;;;;;5016026;28;20646;-56
2022/03/14 00:25:34;;;;;;;3.13;2.83;;;11.00;99.90;;;;;;5017245;28;20207;-56
2022/03/14 00:28:00;;;;;;;3.15;2.85;;;11.00;99.90;;;;;;5017217;28;20181;-56
2022/03/14 00:30:25;;;;;;;3.28;2.97;;;10.90;99.90;;;;;;5017048;28;20238;-55
2022/03/14 00:32:51;;;;;;;3.28;2.95;;;11.00;99.90;;;;;;5016185;28;20180;-56
2022/03/14 00:35:17;;;;;;;3.22;2.92;;;10.90;99.90;;;;;;5017255;28;20227;-56
2022/03/14 00:37:42;;;;;;;3.25;3.05;;;10.90;99.90;;;;;;5016566;28;20176;-57
2022/03/14 00:40:10;;;;;;;2.97;2.78;;;10.80;99.90;;;;;;5015797;28;20264;-55
2022/03/14 00:42:36;;;;;;;3.22;3.00;;;10.80;99.90;;;;;;5015673;28;20189;-57
2022/03/14 00:45:03;;;;;;;3.50;3.20;;;10.80;99.90;;;;;;5016845;28;20184;-57
2022/03/14 00:47:29;;;;;;;3.15;2.90;;;10.90;99.90;;;;;;5016981;28;20172;-57
2022/03/14 00:49:55;;;;;;;2.90;2.70;;;10.60;99.90;;;;;;5017042;28;20246;-56
2022/03/14 00:52:21;;;;;;;3.70;3.40;;;10.60;99.90;;;;;;5015633;28;20252;-57
2022/03/14 00:54:47;;;;;;;3.33;3.03;;;10.50;99.90;;;;;;5016700;28;20212;-57
2022/03/14 00:57:15;;;;;;;3.47;3.17;;;10.50;99.90;;;;;;5016604;28;20276;-55
2022/03/14 00:59:41;;;;;;;3.58;3.25;;;10.60;99.90;;;;;;5015408;28;20192;-56
2022/03/14 01:02:07;;;;;;;3.25;3.05;;;10.60;99.90;;;;;;5016526;28;20181;-55
2022/03/14 01:04:33;;;;;;;3.30;3.08;;;10.60;99.90;;;;;;5016675;28;20196;-57
2022/03/14 01:07:00;;;;;;;3.60;3.30;;;10.50;99.90;;;;;;4999071;28;20219;-56
2022/03/14 01:09:26;;;;;;;3.35;3.05;;;10.50;99.90;;;;;;5016426;28;20262;-55
2022/03/14 01:11:51;;;;;;;2.92;2.67;;;10.60;99.90;;;;;;5016538;28;20169;-57
2022/03/14 01:14:17;;;;;;;3.72;2.83;;;10.50;99.90;;;;;;5016197;28;20219;-57
2022/03/14 01:16:42;;;;;;;3.53;2.90;;;10.40;99.90;;;;;;5016172;28;20176;-57
2022/03/14 01:19:11;;;;;;;3.70;3.40;;;10.50;99.90;;;;;;5016269;28;20180;-57
2022/03/14 01:21:40;;;;;;;3.30;3.10;;;10.50;99.90;;;;;;5015159;28;20215;-56
2022/03/14 01:24:05;;;;;;;3.72;3.22;;;10.50;99.90;;;;;;5015025;28;20206;-57
2022/03/14 01:26:34;;;;;;;3.72;3.30;;;10.40;99.90;;;;;;5016388;28;20194;-56
2022/03/14 01:29:02;;;;;;;3.80;3.40;;;10.40;99.90;;;;;;5015966;28;20173;-56
2022/03/14 01:31:28;;;;;;;3.78;3.40;;;10.40;99.90;;;;;;5014982;28;20644;-56
2022/03/14 01:33:54;;;;;;;4.00;3.70;;;10.30;99.90;;;;;;5015772;28;20565;-57
2022/03/14 01:36:20;;;;;;;4.00;3.70;;;10.40;99.90;;;;;;5014786;28;20172;-57
2022/03/14 01:38:46;;;;;;;4.00;3.70;;;10.30;99.90;;;;;;5015853;28;20672;-56
2022/03/14 01:41:16;;;;;;;4.22;3.83;;;10.20;99.90;;;;;;5015769;28;20626;-55
2022/03/14 01:43:42;;;;;;;4.68;4.28;;;10.20;99.90;;;;;;5015851;28;20180;-56
2022/03/14 01:46:08;;;;;;;4.32;3.88;;;10.20;99.90;;;;;;5014745;28;20682;-57
2022/03/14 01:48:34;;;;;;;4.68;4.25;;;10.10;99.90;;;;;;5015875;28;20180;-57
2022/03/14 01:51:00;;;;;;;5.28;4.57;;;10.10;99.90;;;;;;5015709;28;20272;-57
2022/03/14 01:53:29;;;;;;;5.47;4.90;;;10.10;99.90;;;;;;4997913;28;20299;-55
2022/03/14 01:55:55;;;;;;;5.30;4.80;;;10.20;99.90;;;;;;5015561;28;20219;-57
2022/03/14 01:58:22;;;;;;;5.60;5.20;;;10.10;99.90;;;;;;5015416;28;20177;-56
2022/03/14 02:00:48;;;;;;;6.80;5.82;;;10.00;99.90;;;;;;5015677;28;20184;-56
2022/03/14 02:03:13;;;;;;;6.63;6.03;;;10.00;99.90;;;;;;4997891;28;20713;-55
2022/03/14 02:05:40;;;;;;;7.93;7.22;;;10.00;99.90;;;;;;5015336;28;20235;-56
2022/03/14 02:08:07;;;;;;;6.88;6.22;;;10.00;99.90;;;;;;5014069;28;20519;-57
2022/03/14 02:10:38;;;;;;;7.93;7.18;;;10.00;99.90;;;;;;5014132;28;20688;-56
2022/03/14 02:13:06;;;;;;;7.57;6.80;;;10.00;99.90;;;;;;5015062;28;20267;-57
2022/03/14 02:15:32;;;;;;;7.90;7.20;;;10.00;99.90;;;;;;5015359;28;20184;-57
2022/03/14 02:17:58;;;;;;;7.95;7.15;;;9.90;99.90;;;;;;5015284;28;20181;-56
2022/03/14 02:20:23;;;;;;;7.70;7.00;;;9.90;99.90;;;;;;4997914;28;20181;-56
2022/03/14 02:22:49;;;;;;;8.18;7.38;;;9.90;99.90;;;;;;5013866;28;20181;-57
2022/03/14 02:25:15;;;;;;;7.75;6.72;;;9.80;99.90;;;;;;5014985;28;20176;-56
2022/03/14 02:27:41;;;;;;;8.02;7.32;;;9.70;99.90;;;;;;5013859;28;20208;-55
2022/03/14 02:30:07;;;;;;;8.27;7.47;;;9.60;99.90;;;;;;5013869;28;20173;-56
2022/03/14 02:32:33;;;;;;;8.05;7.35;;;9.60;99.90;;;;;;5014969;28;20185;-57
2022/03/14 02:34:59;;;;;;;8.63;7.82;;;9.60;99.90;;;;;;5014827;28;20220;-56
2022/03/14 02:37:24;;;;;;;8.00;7.30;;;9.60;99.90;;;;;;5013172;28;20204;-57
2022/03/14 02:39:50;;;;;;;8.73;7.97;;;9.50;99.90;;;;;;5014961;28;20268;-56
2022/03/14 02:42:16;;;;;;;7.47;6.75;;;9.50;99.90;;;;;;5014714;28;20267;-57
2022/03/14 02:44:42;;;;;;;8.57;7.70;;;9.50;99.90;;;;;;5012945;28;20227;-55
2022/03/14 02:47:08;;;;;;;8.35;7.55;;;9.50;99.90;;;;;;5014692;28;20217;-57
2022/03/14 02:49:34;;;;;;;8.75;7.90;;;9.40;99.90;;;;;;4996998;28;20200;-57
2022/03/14 02:52:00;;;;;;;9.82;8.90;;;9.60;99.90;;;;;;5014528;28;20637;-57
2022/03/14 02:54:26;;;;;;;8.55;7.75;;;9.50;99.90;;;;;;5014339;28;20205;-56
2022/03/14 02:56:52;;;;;;;8.50;7.70;;;9.40;99.90;;;;;;5014393;28;20204;-56
2022/03/14 02:59:20;;;;;;;9.35;8.38;;;9.40;99.90;;;;;;5014589;28;20219;-57
2022/03/14 03:01:46;;;;;;;9.18;8.23;;;9.30;99.90;;;;;;5014395;28;20230;-56
2022/03/14 03:04:11;;;;;;;9.02;8.10;;;9.30;99.90;;;;;;5014469;28;20185;-56
2022/03/14 03:06:38;;;;;;;8.57;7.78;;;9.20;99.90;;;;;;5014234;28;20176;-56
2022/03/14 03:09:04;;;;;;;7.82;7.13;;;9.20;99.90;;;;;;5013902;28;20211;-56
2022/03/14 03:11:33;;;;;;;8.73;7.93;;;9.20;99.90;;;;;;5014716;28;20569;-55
2022/03/14 03:14:00;;;;;;;7.53;6.90;;;9.10;99.90;;;;;;5014150;28;20216;-56
2022/03/14 03:16:26;;;;;;;8.27;7.47;;;9.20;99.90;;;;;;5014122;28;20181;-56
2022/03/14 03:18:52;;;;;;;7.93;7.13;;;9.10;99.90;;;;;;5012813;28;20653;-56
2022/03/14 03:21:18;;;;;;;7.53;6.90;;;9.10;99.90;;;;;;5013955;28;20181;-57
2022/03/14 03:23:43;;;;;;;7.78;7.07;;;9.10;99.90;;;;;;5013955;28;20657;-57
2022/03/14 03:26:09;;;;;;;7.05;6.35;;;9.20;99.90;;;;;;5013860;28;20255;-57
2022/03/14 03:28:35;;;;;;;7.53;6.82;;;9.20;99.90;;;;;;5012875;28;20173;-56
2022/03/14 03:31:12;;;;;;;7.55;6.90;;;9.30;99.90;;;;;;5014205;28;20192;-56
2022/03/14 03:33:38;;;;;;;7.38;6.68;;;9.30;99.90;;;;;;5013789;28;20210;-54
2022/03/14 03:36:07;;;;;;;7.10;6.40;;;9.40;99.90;;;;;;5013696;28;20597;-57
2022/03/14 03:38:33;;;;;;;6.68;6.07;;;9.40;99.90;;;;;;5013815;28;20172;-55
2022/03/14 03:40:59;;;;;;;6.80;6.20;;;9.30;99.90;;;;;;5013829;28;20180;-56
2022/03/14 03:43:24;;;;;;;8.00;7.28;;;9.50;99.90;;;;;;5013738;28;20176;-57
2022/03/14 03:45:50;;;;;;;7.82;7.13;;;9.50;99.90;;;;;;5013702;28;20169;-56
2022/03/14 03:48:16;;;;;;;7.65;7.00;;;9.50;99.90;;;;;;5013520;28;20180;-56
2022/03/14 03:50:42;;;;;;;8.18;7.38;;;9.60;99.90;;;;;;5013418;28;20202;-56
2022/03/14 03:53:08;;;;;;;9.13;8.15;;;9.60;99.90;;;;;;5012488;28;20661;-55
2022/03/14 03:55:34;;;;;;;8.63;7.82;;;9.60;99.90;;;;;;5013503;28;20199;-56
2022/03/14 03:58:00;;;;;;;10.10;8.95;;;9.60;99.90;;;;;;4995972;28;20180;-56
2022/03/14 04:00:26;;;;;;;10.13;9.23;;;9.60;99.90;;;;;;5013541;28;20179;-57
2022/03/14 04:02:52;;;;;;;10.93;9.43;;;9.70;99.90;;;;;;5013442;28;20227;-57
2022/03/14 04:05:22;;;;;;;10.95;10.00;;;9.80;99.90;;;;;;5013338;28;20713;-57
2022/03/14 04:07:48;;;;;;;11.23;10.02;;;9.70;99.90;;;;;;5013616;28;20173;-56
2022/03/14 04:10:15;;;;;;;14.40;10.93;;;9.80;99.90;;;;;;5013261;28;20200;-56
2022/03/14 04:12:42;;;;;;;12.02;10.85;;;9.70;99.90;;;;;;5013478;28;20231;-56
2022/03/14 04:15:09;;;;;;;11.38;10.20;;;9.60;99.90;;;;;;5013387;28;20310;-56
2022/03/14 04:17:42;;;;;;;11.70;10.50;;;9.70;99.90;;;;;;5012224;28;20219;-55
2022/03/14 04:20:13;;;;;;;11.43;10.27;;;9.80;99.90;;;;;;5013076;28;20181;-57
2022/03/14 04:22:40;;;;;;;11.15;10.05;;;9.80;99.90;;;;;;5013441;28;20183;-56
2022/03/14 04:25:07;;;;;;;12.13;11.02;;;9.80;99.90;;;;;;5013224;28;20523;-55
2022/03/14 04:27:33;;;;;;;11.55;10.55;;;9.80;99.90;;;;;;5013415;28;20676;-56
2022/03/14 04:29:59;;;;;;;12.27;10.90;;;9.80;99.90;;;;;;5013173;28;20177;-56
2022/03/14 04:32:26;;;;;;;12.90;11.57;;;9.80;99.90;;;;;;5013066;28;20164;-56
2022/03/14 04:34:51;;;;;;;11.88;10.68;;;9.90;99.90;;;;;;5011987;28;20240;-56
2022/03/14 04:37:17;;;;;;;11.30;10.25;;;9.90;99.90;;;;;;5012104;28;20219;-55
2022/03/14 04:39:43;;;;;;;11.57;10.48;;;9.80;99.90;;;;;;5011934;28;20173;-57
2022/03/14 04:42:10;;;;;;;12.00;10.88;;;9.90;99.90;;;;;;5011809;28;20263;-56
2022/03/14 04:44:36;;;;;;;11.68;10.55;;;9.90;99.90;;;;;;5011888;28;20176;-56
2022/03/14 04:47:03;;;;;;;11.50;10.40;;;9.90;99.90;;;;;;5013012;28;20172;-57
2022/03/14 04:49:29;;;;;;;12.55;10.90;;;9.90;99.90;;;;;;5011964;28;20284;-56
2022/03/14 04:51:55;;;;;;;11.43;10.15;;;9.80;99.90;;;;;;5013181;28;20167;-57
2022/03/14 04:54:21;;;;;;;12.27;11.00;;;9.80;99.90;;;;;;5012992;28;20219;-56
2022/03/14 04:56:47;;;;;;;14.85;10.95;;;9.70;99.90;;;;;;5013249;28;20589;-56
2022/03/14 04:59:13;;;;;;;11.30;10.18;;;9.70;99.90;;;;;;5012891;28;20223;-55
2022/03/14 05:01:39;;;;;;;12.48;10.93;;;9.70;99.90;;;;;;5012025;28;20220;-55
2022/03/14 05:04:05;;;;;;;12.15;10.82;;;9.80;99.90;;;;;;5012971;28;20192;-55
2022/03/14 05:06:32;;;;;;;12.95;10.82;;;9.70;99.90;;;;;;5012933;28;20183;-55
2022/03/14 05:08:58;;;;;;;11.40;10.18;;;9.80;99.90;;;;;;5015164;28;20251;-55
2022/03/14 05:11:25;;;;;;;10.90;9.75;;;9.70;99.90;;;;;;5016629;28;20185;-56
2022/03/14 05:13:51;;;;;;;11.23;10.13;;;9.80;99.90;;;;;;5016254;28;20212;-54
2022/03/14 05:16:17;;;;;;;11.45;10.32;;;9.80;99.90;;;;;;5015055;28;20172;-55
2022/03/14 05:18:44;;;;;;;11.70;10.50;;;9.80;99.90;;;;;;5016544;28;20192;-55
2022/03/14 05:21:09;;;;;;;12.73;9.77;;;9.80;99.90;;;;;;5015400;28;20235;-54
2022/03/14 05:23:35;;;;;;;10.82;9.80;;;9.80;99.90;;;;;;5016263;28;20187;-54
2022/03/14 05:26:01;;;;;;;10.98;9.48;;;9.80;99.90;;;;;;5016208;28;20216;-55
2022/03/14 05:28:26;;;;;;;13.05;10.00;;;9.80;99.90;;;;;;5015236;28;20181;-57
2022/03/14 05:30:53;;;;;;;12.25;10.13;;;9.80;99.90;;;;;;5015375;28;20177;-55
2022/03/14 05:33:18;;;;;;;10.32;9.23;;;9.80;99.90;;;;;;5015831;28;20291;-55
2022/03/14 05:35:44;;;;;;;13.00;10.02;;;9.80;99.90;;;;;;5014915;28;20645;-56
2022/03/14 05:38:10;;;;;;;11.02;9.85;;;9.70;99.90;;;;;;5014831;28;20231;-56
2022/03/14 05:40:36;;;;;;;10.93;9.52;;;9.80;99.90;;;;;;5014467;28;20185;-54
2022/03/14 05:43:09;;;;;;;9.77;8.82;;;9.80;99.90;;;;;;5015822;28;20172;-56
2022/03/14 05:45:35;;;;;;;10.13;8.95;;;9.80;99.90;;;;;;5014440;28;20677;-56
2022/03/14 05:48:02;;;;;;;13.13;9.52;;;9.70;99.90;;;;;;5015672;28;20546;-57
2022/03/14 05:50:28;;;;;;;11.98;9.32;;;9.80;99.90;;;;;;5014084;28;20185;-57
2022/03/14 05:52:54;;;;;;;12.23;9.90;;;9.80;99.90;;;;;;5015456;28;20181;-57
2022/03/14 05:55:20;;;;;;;10.82;9.20;;;9.70;99.90;;;;;;5015598;28;20354;-58
2022/03/14 05:57:46;;;;;;;10.57;9.38;;;9.70;99.90;;;;;;5015593;28;20225;-59
2022/03/14 06:00:13;;;;;;;11.95;10.35;;;9.70;99.90;;;;;;5015365;28;20231;-58
2022/03/14 06:02:44;;;;;;;13.27;10.48;;;9.80;99.90;;;;;;5015490;28;20184;-60
2022/03/14 06:05:10;;;;;;;11.38;10.13;;;9.70;99.90;;;;;;5013431;28;20200;-60
2022/03/14 06:07:35;;;;;;;11.50;9.43;;;9.70;99.90;;;;;;5015379;28;20184;-60
2022/03/14 06:10:01;;;;;;;10.15;9.13;;;9.50;99.90;;;;;;5015750;28;20629;-60
2022/03/14 06:12:28;;;;;;;14.02;10.68;;;9.30;99.90;;;;;;5014077;28;20219;-60
2022/03/14 06:14:56;;;;;;;15.88;11.30;;;9.40;99.90;;;;;;5014122;28;20278;-60
2022/03/14 06:17:22;;;;;;;15.48;12.05;;;9.50;99.90;;;;;;5015308;28;20177;-59
2022/03/14 06:19:48;;;;;;;14.75;10.98;;;9.40;99.90;;;;;;5014187;28;20195;-60
2022/03/14 06:22:19;;;;;;;13.40;11.15;;;9.40;99.90;;;;;;5015171;28;20196;-59
2022/03/14 06:24:47;;;;;;;14.77;11.90;;;9.40;99.90;;;;;;5015171;28;20567;-59
2022/03/14 06:27:20;;;;;;;12.43;10.27;;;9.50;99.90;;;;;;5015502;28;20181;-60
2022/03/14 06:29:46;;;;;;;15.07;10.70;;;9.60;99.90;;;;;;5015196;28;20256;-60
2022/03/14 06:32:13;;;;;;;13.02;11.18;;;9.60;99.90;;;;;;5014002;28;20573;-60
2022/03/14 06:34:39;;;;;;;12.20;10.30;;;9.70;99.90;;;;;;5014910;28;20236;-59
2022/03/14 06:37:08;;;;;;;11.13;9.60;;;9.70;99.90;;;;;;5014909;28;20263;-59
2022/03/14 06:39:35;;;;;;;13.68;9.43;;;9.70;99.90;;;;;;5013738;28;20177;-60
2022/03/14 06:42:03;;;;;;;11.65;10.10;;;9.70;99.90;;;;;;5014887;28;20176;-60
2022/03/14 06:44:29;;;;;;;11.93;10.40;;;9.60;99.90;;;;;;5014891;28;20180;-60
2022/03/14 06:46:55;;;;;;;11.18;9.73;;;9.60;99.90;;;;;;5014419;28;20185;-60
2022/03/14 06:49:21;;;;;;;11.18;10.07;;;9.60;99.90;;;;;;5014559;28;20308;-60
2022/03/14 06:51:47;;;;;;;14.38;10.15;;;9.70;99.90;;;;;;5014261;28;20642;-60
2022/03/14 06:54:14;;;;;;;10.88;9.45;;;9.70;99.90;;;;;;5014413;28;20207;-59
2022/03/14 06:56:42;;;;;;;13.40;10.07;;;9.70;99.90;;;;;;5013414;28;20181;-60
2022/03/14 06:59:08;;;;;;;11.35;10.18;;;9.70;99.90;;;;;;5013397;28;20211;-59
2022/03/14 07:01:34;;;;;;;11.60;9.73;;;9.70;99.90;;;;;;5013249;28;20622;-59
2022/03/14 07:04:02;;;;;;;13.18;10.27;;;9.70;99.90;;;;;;4996934;28;20184;-60
2022/03/14 07:06:28;;;;;;;10.20;9.20;;;9.70;99.90;;;;;;5014098;28;20196;-60
2022/03/14 07:08:54;;;;;;;12.00;8.88;;;9.80;99.90;;;;;;5014056;28;20176;-59
2022/03/14 07:11:19;;;;;;;13.80;10.07;;;9.90;99.90;;;;;;5014647;28;20530;-60
2022/03/14 07:13:45;;;;;;;12.18;8.70;;;10.00;99.90;;;;;;5014214;28;20208;-59
2022/03/14 07:16:11;;;;;;;14.05;8.98;;;10.00;99.90;;;;;;5013193;28;20566;-60
2022/03/14 07:18:37;;;;;;;12.27;8.38;;;10.00;99.90;;;;;;5014194;28;20172;-59
2022/03/14 07:21:02;;;;;;;12.70;8.75;;;10.10;99.90;;;;;;5013905;28;20264;-60
2022/03/14 07:23:28;;;;;;;11.65;8.88;;;10.20;99.90;;;;;;5013913;28;20267;-59
2022/03/14 07:25:54;;;;;;;13.82;8.60;;;10.20;99.90;;;;;;5014110;28;20169;-59
2022/03/14 07:28:19;;;;;;;10.82;8.45;;;10.20;99.90;;;;;;5013045;28;20176;-60
2022/03/14 07:30:45;;;;;;;18.13;9.57;;;10.20;99.90;;;;;;5013712;28;20686;-60
2022/03/14 07:33:11;;;;;;;10.25;8.60;;;10.30;99.90;;;;;;5013639;28;20318;-60
2022/03/14 07:35:37;;;;;;;9.65;8.30;;;10.40;99.90;;;;;;5013929;28;20192;-60
2022/03/14 07:38:04;;;;;;;12.77;8.75;;;10.30;99.90;;;;;;5012456;28;20642;-60
2022/03/14 07:40:30;;;;;;;9.90;8.13;;;10.30;99.90;;;;;;5014015;28;20191;-60
2022/03/14 07:42:58;;;;;;;12.45;8.50;;;10.40;99.90;;;;;;5013850;28;20179;-59
2022/03/14 07:45:24;;;;;;;12.38;7.45;;;10.60;99.90;;;;;;5013692;28;20184;-59
2022/03/14 07:47:51;;;;;;;11.48;7.50;;;10.60;99.90;;;;;;5013622;28;20191;-59
2022/03/14 07:50:17;;;;;;;13.85;7.50;;;10.50;99.90;;;;;;5012184;28;20264;-60
2022/03/14 07:52:44;;;;;;;12.02;8.10;;;10.50;99.90;;;;;;5013845;28;20192;-60
2022/03/14 07:55:11;;;;;;;11.00;7.32;;;10.50;99.90;;;;;;5013683;28;20208;-60
2022/03/14 07:57:38;;;;;;;10.70;8.25;;;10.50;99.90;;;;;;5013803;28;20256;-60
2022/03/14 08:00:08;;;;;;;14.20;7.95;;;10.60;99.90;;;;;;5013394;28;20181;-59
2022/03/14 08:02:34;;;;;;;10.25;7.85;;;10.50;99.90;;;;;;5011148;28;20181;-60
2022/03/14 08:05:00;;;;;;;11.80;7.85;;;10.50;99.90;;;;;;5011244;28;20192;-60
2022/03/14 08:07:27;;;;;;;9.80;7.80;;;10.50;99.90;;;;;;5011287;28;20279;-61
2022/03/14 08:09:53;;;;;;;12.27;8.55;;;10.60;99.90;;;;;;4994611;28;20289;-60
2022/03/14 08:12:21;;;;;;;12.15;7.93;;;10.70;99.90;;;;;;5011147;28;20220;-60
2022/03/14 08:14:47;;;;;;;10.73;7.60;;;10.70;99.90;;;;;;5011196;28;20207;-59
2022/03/14 08:17:13;;;;;;;12.68;7.43;;;10.80;99.90;;;;;;5011238;28;20197;-60
2022/03/14 08:19:39;;;;;;;12.85;7.85;;;10.80;99.90;;;;;;4994767;28;20193;-60
2022/03/14 08:22:05;;;;;;;11.73;6.90;;;10.80;99.90;;;;;;5011161;28;20192;-60
2022/03/14 08:24:32;;;;;;;14.43;7.65;;;10.90;99.90;;;;;;5011228;28;20669;-59
2022/03/14 08:26:58;;;;;;;13.20;7.05;;;11.00;99.90;;;;;;4994917;28;20654;-59
2022/03/14 08:29:24;;;;;;;14.23;7.32;;;11.00;99.90;;;;;;5011101;28;20275;-60
2022/03/14 08:31:50;;;;;;;14.18;7.55;;;11.10;99.90;;;;;;4994615;28;20267;-60
2022/03/14 08:34:16;;;;;;;8.52;6.28;;;11.30;99.90;;;;;;5012509;28;20224;-60
2022/03/14 08:36:42;;;;;;;12.00;6.70;;;11.30;99.90;;;;;;5013634;28;20181;-60
2022/03/14 08:39:09;;;;;;;12.15;6.18;;;11.30;99.90;;;;;;5012156;28;20200;-60
2022/03/14 08:41:39;;;;;;;11.32;6.57;;;11.20;99.90;;;;;;5013150;28;20529;-60
2022/03/14 08:44:05;;;;;;;13.18;6.97;;;11.50;99.90;;;;;;5015865;28;20231;-60
2022/03/14 08:46:31;;;;;;;9.90;6.28;;;11.40;99.90;;;;;;5016929;28;20175;-60
2022/03/14 08:48:57;;;;;;;9.90;6.18;;;11.30;99.90;;;;;;5017023;28;20176;-60
2022/03/14 08:51:24;;;;;;;9.70;6.00;;;11.30;99.90;;;;;;5015626;28;20611;-60
2022/03/14 08:53:49;;;;;;;14.05;6.95;;;11.30;99.90;;;;;;5015632;28;20263;-59
2022/03/14 08:56:15;;;;;;;10.43;5.72;;;11.20;99.90;;;;;;5015507;28;20184;-60
2022/03/14 08:58:41;;;;;;;11.45;6.38;;;11.30;99.90;;;;;;5016715;28;20633;-60
2022/03/14 09:01:08;;;;;;;9.15;5.90;;;11.30;99.90;;;;;;5016672;28;20227;-59
2022/03/14 09:03:34;;;;;;;14.82;6.50;;;11.30;99.90;;;;;;5015505;28;20602;-59
2022/03/14 09:05:59;;;;;;;13.32;6.45;;;11.20;99.90;;;;;;5016879;28;20183;-60
2022/03/14 09:08:26;;;;;;;11.77;6.60;;;11.30;99.90;;;;;;5016541;28;20177;-60
2022/03/14 09:10:53;;;;;;;9.95;5.80;;;11.40;99.90;;;;;;5016480;28;20638;-60
2022/03/14 09:13:29;;;;;;;11.43;6.25;;;11.30;99.90;;;;;;5016460;28;20172;-60
2022/03/14 09:15:55;;;;;;;11.98;6.07;;;11.30;99.90;;;;;;5015310;28;20546;-60
2022/03/14 09:18:21;;;;;;;10.88;6.32;;;11.30;99.90;;;;;;5015200;28;20631;-59
2022/03/14 09:20:49;;;;;;;12.88;6.80;;;11.20;99.90;;;;;;5016451;28;20165;-60
2022/03/14 09:23:20;;;;;;;11.68;5.88;;;11.30;99.90;;;;;;5015529;28;20228;-60
2022/03/14 09:25:47;;;;;;;11.52;6.57;;;11.30;99.90;;;;;;5016218;28;20268;-60
2022/03/14 09:28:13;;;;;;;9.85;6.13;;;11.50;99.90;;;;;;5016044;28;20173;-59
2022/03/14 09:30:39;;;;;;;11.65;6.65;;;11.50;99.90;;;;;;5016205;28;20196;-60
2022/03/14 09:33:05;;;;;;;14.68;6.80;;;11.50;99.90;;;;;;5016107;28;20579;-60
2022/03/14 09:35:31;;;;;;;12.90;6.95;;;11.70;99.90;;;;;;5015992;28;20247;-61
2022/03/14 09:37:57;;;;;;;11.77;7.22;;;11.70;99.90;;;;;;5014958;28;20657;-60
2022/03/14 09:40:24;;;;;;;12.43;6.65;;;11.90;99.90;;;;;;5015886;28;20196;-60
2022/03/14 09:42:55;;;;;;;14.80;6.88;;;11.80;99.90;;;;;;5014623;28;20177;-59
2022/03/14 09:45:21;;;;;;;15.77;7.05;;;11.80;99.90;;;;;;5016051;28;20228;-59
2022/03/14 09:47:49;;;;;;;13.02;6.50;;;11.90;99.90;;;;;;5015891;28;20176;-59
2022/03/14 09:50:34;;;;;;;12.10;6.53;;;11.90;99.90;;;;;;5015719;28;20200;-59
2022/03/14 09:53:05;;;;;;;12.07;6.55;;;11.90;99.90;;;;;;5014318;28;20625;-59
2022/03/14 09:55:35;;;;;;;11.13;6.05;;;11.80;99.90;;;;;;5014458;28;20200;-59
2022/03/14 09:58:01;;;;;;;11.27;6.40;;;12.00;99.90;;;;;;5016063;28;20272;-59
2022/03/14 10:00:27;;;;;;;10.75;6.10;;;12.10;99.90;;;;;;5015610;28;20227;-59
2022/03/14 10:02:53;;;;;;;11.93;5.70;;;12.30;99.90;;;;;;5015669;28;20169;-59
2022/03/14 10:05:19;;;;;;;11.30;6.30;;;12.30;99.90;;;;;;5015510;28;20177;-59
2022/03/14 10:07:45;;;;;;;12.68;6.30;;;12.50;99.90;;;;;;5014108;28;20188;-59
2022/03/14 10:10:12;;;;;;;11.45;5.80;;;12.60;99.90;;;;;;5015527;28;20200;-59
2022/03/14 10:12:38;;;;;;;13.73;5.82;;;12.80;99.90;;;;;;5015456;28;20185;-59
2022/03/14 10:15:05;;;;;;;12.10;5.40;;;13.00;99.90;;;;;;5015602;28;20661;-59
2022/03/14 10:17:32;;;;;;;12.40;5.47;;;13.20;99.90;;;;;;5015186;28;20239;-59
2022/03/14 10:20:00;;;;;;;10.52;4.90;;;13.30;99.90;;;;;;5015150;28;20204;-59
2022/03/14 10:22:34;;;;;;;11.10;4.78;;;13.30;99.90;;;;;;5015191;28;20177;-59
2022/03/14 10:25:03;;;;;;;13.52;5.30;;;13.30;99.90;;;;;;5015276;28;20180;-59
2022/03/14 10:27:33;;;;;;;12.20;5.68;;;13.40;99.90;;;;;;5015140;28;20219;-59
2022/03/14 10:29:59;;;;;;;12.13;5.60;;;13.20;99.90;;;;;;5015202;28;20527;-59
2022/03/14 10:32:31;;;;;;;11.38;4.95;;;13.20;99.90;;;;;;5013701;28;20176;-59
2022/03/14 10:35:03;;;;;;;10.95;5.10;;;13.40;99.90;;;;;;5014780;28;20200;-59
2022/03/14 10:37:29;;;;;;;8.38;4.47;;;13.60;99.90;;;;;;5014912;28;20184;-59
2022/03/14 10:40:00;;;;;;;10.90;5.30;;;13.50;99.90;;;;;;5014863;28;20177;-59
2022/03/14 10:42:26;;;;;;;20.45;15.95;;;13.40;99.90;;;;;;5013707;28;20538;-59
2022/03/14 10:44:53;;;;;;;10.82;5.78;;;13.40;99.90;;;;;;5013518;28;20538;-59
2022/03/14 10:47:20;;;;;;;10.32;4.90;;;13.40;99.90;;;;;;4997038;28;20200;-59
2022/03/14 10:49:46;;;;;;;12.32;4.80;;;13.40;99.90;;;;;;5014490;28;20176;-60
2022/03/14 10:52:20;;;;;;;10.68;5.40;;;13.50;99.90;;;;;;5014619;28;20184;-59
2022/03/14 10:54:46;;;;;;;11.93;5.97;;;13.30;99.90;;;;;;5014689;28;20205;-59
2022/03/14 10:57:25;;;;;;;12.35;4.43;;;13.50;99.90;;;;;;5014483;28;20538;-59
2022/03/14 10:59:53;;;;;;;10.00;5.20;;;13.50;99.90;;;;;;5014344;28;20188;-59
2022/03/14 11:02:22;;;;;;;14.55;5.57;;;13.80;99.90;;;;;;5014476;28;20181;-59
2022/03/14 11:04:50;;;;;;;8.80;4.50;;;14.30;99.90;;;;;;5013300;28;20191;-59
2022/03/14 11:07:18;;;;;;;11.52;5.20;;;14.50;99.90;;;;;;5013836;28;20168;-59
2022/03/14 11:09:58;;;;;;;9.15;5.03;;;14.40;99.90;;;;;;5012938;28;20612;-59
2022/03/14 11:12:29;;;;;;;15.00;6.50;;;14.30;99.90;;;;;;5014200;28;20248;-59
2022/03/14 11:15:00;;;;;;;14.38;6.28;;;14.10;99.90;;;;;;5013286;28;20236;-59
2022/03/14 11:17:28;;;;;;;13.30;7.30;;;14.10;99.90;;;;;;5014145;28;20638;-59
2022/03/14 11:19:56;;;;;;;11.40;4.90;;;14.00;99.90;;;;;;5014071;28;20169;-59
2022/03/14 11:22:23;;;;;;;10.77;4.97;;;14.00;99.90;;;;;;5013963;28;20184;-59
2022/03/14 11:24:52;;;;;;;12.80;4.22;;;14.00;99.90;;;;;;5014057;28;20184;-59
2022/03/14 11:27:26;;;;;;;10.60;4.28;;;14.10;99.90;;;;;;4996589;28;20529;-59
2022/03/14 11:29:53;;;;;;;10.02;4.25;;;14.30;99.90;;;;;;5014336;28;20638;-59
2022/03/14 11:32:20;;;;;;;8.90;4.03;;;14.40;99.90;;;;;;5013849;28;20546;-59
2022/03/14 11:34:48;;;;;;;12.02;4.00;;;14.10;99.90;;;;;;5013820;28;20212;-59
2022/03/14 11:37:15;;;;;;;10.65;4.20;;;13.90;99.90;;;;;;5012530;28;20283;-59
2022/03/14 11:39:41;;;;;;;7.57;3.60;;;13.50;99.90;;;;;;5013616;28;20177;-59
2022/03/14 11:42:08;;;;;;;8.30;4.10;;;13.40;99.90;;;;;;5013857;28;20169;-59
2022/03/14 11:44:35;;;;;;;12.18;4.38;;;13.60;99.90;;;;;;4996340;28;20188;-59
2022/03/14 11:47:02;;;;;;;10.07;4.82;;;13.80;99.90;;;;;;5012556;28;20674;-59
2022/03/14 11:49:29;;;;;;;14.93;4.93;;;13.90;99.90;;;;;;5012482;28;20550;-59
2022/03/14 11:52:23;;;;;;;12.07;4.65;;;13.70;99.90;;;;;;5013653;28;20265;-59
2022/03/14 11:54:53;;;;;;;9.63;5.15;;;13.60;99.90;;;;;;5013696;28;20204;-59
2022/03/14 11:57:35;;;;;;;10.73;5.43;;;13.60;99.90;;;;;;5012532;28;20184;-59
2022/03/14 12:00:32;;;;;;;9.23;4.57;;;13.80;99.90;;;;;;5013335;28;20173;-60
2022/03/14 12:03:02;;;;;;;11.02;5.20;;;14.00;99.90;;;;;;5013952;28;20193;-59
2022/03/14 12:05:35;;;;;;;9.80;5.20;;;14.00;99.90;;;;;;5013651;28;20172;-59
2022/03/14 12:08:07;;;;;;;10.15;4.60;;;14.00;99.90;;;;;;5013407;28;20168;-61
2022/03/14 12:10:34;;;;;;;11.48;4.93;;;14.10;99.90;;;;;;5013076;28;20188;-60
2022/03/14 12:13:03;;;;;;;14.40;4.70;;;14.30;99.90;;;;;;5011971;28;20188;-59
2022/03/14 12:15:42;;;;;;;13.73;5.05;;;14.70;99.90;;;;;;5013054;28;20239;-59
2022/03/14 12:18:23;;;;;;;9.27;4.75;;;15.20;99.90;;;;;;5014874;28;20267;-59
2022/03/14 12:20:50;;;;;;;11.88;4.75;;;15.20;99.90;;;;;;5017279;28;20177;-59
2022/03/14 12:23:30;;;;;;;14.13;4.78;;;15.20;99.90;;;;;;5017246;28;20180;-59
2022/03/14 12:25:58;;;;;;;11.63;4.15;;;15.60;99.90;;;;;;5017297;28;20168;-59
2022/03/14 12:28:29;;;;;;;10.45;4.20;;;15.80;99.90;;;;;;5016056;28;20180;-59
2022/03/14 12:31:04;;;;;;;11.82;4.60;;;16.10;99.90;;;;;;5017387;28;20176;-59
2022/03/14 12:33:31;;;;;;;12.25;4.40;;;16.30;99.90;;;;;;5016964;28;20176;-59
2022/03/14 12:35:57;;;;;;;9.52;4.40;;;16.30;99.90;;;;;;5016933;28;20180;-59
2022/03/14 12:38:23;;;;;;;12.25;4.40;;;16.40;99.90;;;;;;5017089;28;20180;-59
2022/03/14 12:40:56;;;;;;;10.35;4.20;;;16.40;99.90;;;;;;5015796;28;20180;-59
2022/03/14 12:43:22;;;;;;;12.23;3.83;;;16.40;99.90;;;;;;5015958;28;20267;-59